»·PEaware :: N90HM KSBA-KLAS

N90HM :: KSBA-KLAS

FLIGHT INFORMATION

Flight Status: Arrived
Operator: Privately registered:
United States
More flights under this callsign
Pilot: Jim B. (1646)
Aircraft: IAI 1124 WESTWIND
(WW24)
More flights by this aircraft type
Origin: KSBA Santa Barbara Mun
United States
Destination: KLAS McCarran Intl
United States
More flights between these airports :: More routes between these airports
Route: KWANGS5 HENER FIM V386 PMD DAG KEPEC3
File this flight plan on PilotEdge
Remarks: / V /
Altitude:
(Current/Filed)
25,000ft
Speed:
(Current/Filed)
380kts
Departed: 21-Feb-13 04:46 PM
Arrived: 21-Feb-13 05:43 PM
Distance/Time
Traveled:
250nm/0:57
Distance/Time
To Go:
Arrived

Flight Plot

Page will automatically refresh every two minutes.


Map Options




Map Legend


Flown Route
Filed Route
Departure Airport
Arrival Airport
Navaid (VOR, NDB)
Fix

Horizontal Profiles

Position Reports

Time Latitude Longitude Heading Altitude Ground
Speed
21-Feb-13 16:33 34.433170 -119.834509 339 13ft 0kts
21-Feb-13 16:34 34.433175 -119.834511 339 13ft 0kts
21-Feb-13 16:35 34.433179 -119.834513 339 13ft 0kts
21-Feb-13 16:36 34.433183 -119.834515 339 13ft 0kts
21-Feb-13 16:37 34.433188 -119.834517 339 13ft 0kts
21-Feb-13 16:38 34.433192 -119.834519 339 13ft 0kts
21-Feb-13 16:39 34.433197 -119.834521 339 13ft 0kts
21-Feb-13 16:40 34.432677 -119.833871 104 13ft 9kts
21-Feb-13 16:41 34.430867 -119.833005 85 13ft 9kts
21-Feb-13 16:42 34.430402 -119.831985 183 13ft 10kts
21-Feb-13 16:43 34.428606 -119.832094 182 13ft 0kts
21-Feb-13 16:44 34.428601 -119.832094 182 13ft 0kts
21-Feb-13 16:45 34.428597 -119.832095 182 13ft 0kts
21-Feb-13 16:46 34.428592 -119.832095 182 13ft 0kts
21-Feb-13 16:47 34.427599 -119.843767 266 13ft 143kts
21-Feb-13 16:48 34.424075 -119.911061 263 2788ft 230kts
21-Feb-13 16:49 34.415533 -119.983012 266 5885ft 238kts
21-Feb-13 16:50 34.373681 -120.041019 181 6997ft 282kts
21-Feb-13 16:51 34.317257 -119.977828 119 8350ft 302kts
21-Feb-13 16:52 34.304924 -119.883605 77 10873ft 279kts
21-Feb-13 16:53 34.316681 -119.794513 73 13360ft 262kts
21-Feb-13 16:54 34.335026 -119.706462 72 15557ft 273kts
21-Feb-13 16:55 34.355416 -119.623258 103 17565ft 243kts
21-Feb-13 16:56 34.325195 -119.553866 122 19908ft 234kts
21-Feb-13 16:57 34.294287 -119.486735 116 21683ft 236kts
21-Feb-13 16:58 34.309558 -119.399736 69 22677ft 282kts
21-Feb-13 16:59 34.314443 -119.302294 78 23745ft 295kts
21-Feb-13 17:00 34.317729 -119.202459 79 24772ft 300kts
21-Feb-13 17:01 34.316927 -119.099343 76 25016ft 315kts
21-Feb-13 17:02 34.323348 -118.979909 75 25021ft 388kts
21-Feb-13 17:03 34.345889 -118.844876 64 25015ft 429kts
21-Feb-13 17:04 34.386080 -118.704301 62 24991ft 447kts
21-Feb-13 17:05 34.428955 -118.564494 61 24982ft 445kts
21-Feb-13 17:06 34.472986 -118.423152 62 24974ft 450kts
21-Feb-13 17:07 34.523088 -118.284005 56 24990ft 450kts
21-Feb-13 17:08 34.578049 -118.148317 57 24994ft 447kts
21-Feb-13 17:09 34.632694 -118.013292 55 24993ft 445kts
21-Feb-13 17:10 34.674360 -117.870692 67 24988ft 451kts
21-Feb-13 17:11 34.705064 -117.722951 68 24981ft 448kts
21-Feb-13 17:12 34.734829 -117.576337 68 24973ft 447kts
21-Feb-13 17:13 34.767778 -117.431583 63 24973ft 441kts
21-Feb-13 17:14 34.808493 -117.291715 62 24973ft 436kts
21-Feb-13 17:15 34.849566 -117.153155 63 24973ft 433kts
21-Feb-13 17:16 34.880308 -117.010062 73 24953ft 446kts
21-Feb-13 17:17 34.900944 -116.858467 76 25002ft 458kts
21-Feb-13 17:18 34.919254 -116.703213 72 24988ft 470kts
21-Feb-13 17:19 34.962814 -116.555052 56 24950ft 477kts
21-Feb-13 17:20 35.057090 -116.450821 37 24995ft 434kts
21-Feb-13 17:21 35.144692 -116.353624 40 24984ft 420kts
21-Feb-13 17:22 35.228399 -116.256424 42 24978ft 411kts
21-Feb-13 17:23 35.309749 -116.157810 41 24527ft 421kts
21-Feb-13 17:24 35.392927 -116.048454 42 22316ft 433kts
21-Feb-13 17:25 35.465707 -115.950805 42 18662ft 365kts
21-Feb-13 17:26 35.533426 -115.862667 42 15313ft 345kts
21-Feb-13 17:27 35.600131 -115.780691 41 12978ft 322kts
21-Feb-13 17:28 35.656441 -115.708830 43 12991ft 267kts
21-Feb-13 17:29 35.710645 -115.637818 43 13014ft 315kts
21-Feb-13 17:30 35.780950 -115.559149 18 13014ft 352kts
21-Feb-13 17:31 35.870368 -115.554270 354 13003ft 304kts
21-Feb-13 17:32 35.950782 -115.567050 350 13005ft 275kts
21-Feb-13 17:33 36.021648 -115.559245 40 12335ft 280kts
21-Feb-13 17:34 36.038233 -115.461849 91 11003ft 282kts
21-Feb-13 17:35 36.029908 -115.378236 94 10996ft 216kts
21-Feb-13 17:36 36.021295 -115.299572 94 10700ft 259kts
21-Feb-13 17:37 36.014268 -115.215344 91 9931ft 239kts
21-Feb-13 17:38 36.010600 -115.131605 90 8706ft 240kts
21-Feb-13 17:39 36.044771 -115.073209 27 7670ft 234kts
21-Feb-13 17:40 36.106411 -115.046679 7 5901ft 216kts
21-Feb-13 17:41 36.156551 -115.069458 301 4633ft 188kts
21-Feb-13 17:42 36.141763 -115.122434 204 3474ft 190kts
21-Feb-13 17:43 36.104390 -115.149741 206 2505ft 140kts
21-Feb-13 17:44 36.084843 -115.161274 185 2184ft 0kts
21-Feb-13 17:45 36.083681 -115.161168 175 2184ft 9kts
21-Feb-13 17:46 36.082617 -115.161069 175 2184ft 2kts
21-Feb-13 17:47 36.081495 -115.160341 92 2184ft 6kts
21-Feb-13 17:48 36.081503 -115.157108 88 2184ft 12kts
21-Feb-13 17:49 36.081163 -115.152062 99 2184ft 17kts
21-Feb-13 17:50 36.079892 -115.148551 86 2184ft 15kts
21-Feb-13 17:51 36.080258 -115.147351 66 2184ft 0kts
21-Feb-13 17:52 36.080259 -115.147348 66 2184ft 0kts
21-Feb-13 17:53 36.080259 -115.147348 66 2184ft 0kts

Navigation Log

Ident Type
Flight plan parsing failed, navigation log unavailable